Disclaimer

Please do not use the information listed here in-flight or in-navigation, as they are not provided to us by the airports but are provided by volunteers, so they might be outdated.

Search


Regions


Airport information page

Radio informations:
Tower (TWR) - 120.075 MHz
MUNCHEN INFO - 126.95 MHz
INFO - 122.5 MHz
ZURICH ARR - 119.925 MHz

Airport informations:
Latitude: 47° 40' 16.74" N
Longitude: 009° 30' 41.35" E
Elevation: 1367 feet - 417 meters
Operating hours: Remarks
Operating agency: Civil government, landing fees and diplomatic clearance may be required
Timezone: UTC+1(+2DT) - Last Sunday in March to last Sunday in October
Fuel: Jet A1+, Jet A1 with icing inhibitor.

100/130 MIL Spec, low lead, aviation gasoline (BLUE)

Runway information:
06/24 - 7729 x 148 feet< - >2356 x 45 meters

Recent METARs:
EDNY 170750Z 07006KT 9999 BKN023 03/M01 Q1025
EDNY 170820Z 07006KT 9999 BKN022 03/M01 Q1025
EDNY 170850Z 05008KT 9999 BKN023 04/M01 Q1024

Airport on the map: